sensor_id;sensor_type;location;lat;lon;timestamp;noise_LAeq;noise_LA_min;noise_LA_max;noise_LA01;noise_LA95
41704;Laerm;861;48.808;9.006;2023-04-06T00:00:27;34.07;32.75;35.56;;
41704;Laerm;861;48.808;9.006;2023-04-06T00:02:54;34.05;32.64;35.43;;
41704;Laerm;861;48.808;9.006;2023-04-06T00:05:21;34.05;32.66;35.10;;
41704;Laerm;861;48.808;9.006;2023-04-06T00:07:49;34.04;32.83;35.35;;
41704;Laerm;861;48.808;9.006;2023-04-06T00:10:17;34.04;32.66;35.22;;
41704;Laerm;861;48.808;9.006;2023-04-06T00:12:44;34.04;32.55;35.10;;
41704;Laerm;861;48.808;9.006;2023-04-06T00:15:11;34.06;32.58;35.22;;
41704;Laerm;861;48.808;9.006;2023-04-06T00:17:38;34.07;32.83;35.23;;
41704;Laerm;861;48.808;9.006;2023-04-06T00:20:06;34.05;32.67;35.22;;
41704;Laerm;861;48.808;9.006;2023-04-06T00:22:33;34.06;32.82;35.42;;
41704;Laerm;861;48.808;9.006;2023-04-06T00:25:00;34.06;32.67;35.28;;
41704;Laerm;861;48.808;9.006;2023-04-06T00:27:27;34.06;32.55;35.78;;
41704;Laerm;861;48.808;9.006;2023-04-06T00:29:54;34.07;32.52;35.27;;
41704;Laerm;861;48.808;9.006;2023-04-06T00:32:21;34.08;32.53;35.33;;
41704;Laerm;861;48.808;9.006;2023-04-06T00:34:47;34.07;32.84;35.48;;
41704;Laerm;861;48.808;9.006;2023-04-06T00:37:14;34.09;32.89;35.26;;
41704;Laerm;861;48.808;9.006;2023-04-06T00:39:40;34.07;32.82;35.39;;
41704;Laerm;861;48.808;9.006;2023-04-06T00:42:14;34.08;32.78;35.29;;
41704;Laerm;861;48.808;9.006;2023-04-06T00:44:42;34.08;32.79;35.27;;
41704;Laerm;861;48.808;9.006;2023-04-06T00:47:09;34.10;32.77;35.62;;
41704;Laerm;861;48.808;9.006;2023-04-06T00:49:36;34.09;32.83;35.25;;
41704;Laerm;861;48.808;9.006;2023-04-06T00:52:03;34.09;32.74;35.34;;
41704;Laerm;861;48.808;9.006;2023-04-06T00:54:30;34.09;32.75;35.45;;
41704;Laerm;861;48.808;9.006;2023-04-06T00:56:57;34.10;32.76;35.68;;
41704;Laerm;861;48.808;9.006;2023-04-06T00:59:24;34.10;32.62;35.51;;
41704;Laerm;861;48.808;9.006;2023-04-06T01:01:51;34.10;32.96;35.33;;
41704;Laerm;861;48.808;9.006;2023-04-06T01:04:17;34.09;32.89;35.17;;
41704;Laerm;861;48.808;9.006;2023-04-06T01:06:44;34.09;32.84;35.24;;
41704;Laerm;861;48.808;9.006;2023-04-06T01:09:12;34.09;32.75;35.27;;
41704;Laerm;861;48.808;9.006;2023-04-06T01:11:38;34.10;32.74;35.34;;
41704;Laerm;861;48.808;9.006;2023-04-06T01:14:05;34.10;32.71;35.44;;
41704;Laerm;861;48.808;9.006;2023-04-06T01:16:33;34.11;32.61;35.49;;
41704;Laerm;861;48.808;9.006;2023-04-06T01:19:00;34.11;32.73;35.32;;
41704;Laerm;861;48.808;9.006;2023-04-06T01:21:27;34.12;32.88;35.30;;
41704;Laerm;861;48.808;9.006;2023-04-06T01:23:53;34.11;32.82;35.26;;
41704;Laerm;861;48.808;9.006;2023-04-06T01:26:19;34.12;32.94;35.25;;
41704;Laerm;861;48.808;9.006;2023-04-06T01:28:46;34.12;32.74;35.41;;
41704;Laerm;861;48.808;9.006;2023-04-06T01:31:12;34.13;32.65;35.34;;
41704;Laerm;861;48.808;9.006;2023-04-06T01:33:43;34.13;32.80;35.25;;
41704;Laerm;861;48.808;9.006;2023-04-06T01:36:14;34.12;32.73;35.34;;
41704;Laerm;861;48.808;9.006;2023-04-06T01:38:41;34.12;32.64;35.10;;
41704;Laerm;861;48.808;9.006;2023-04-06T01:41:09;34.12;32.99;35.33;;
41704;Laerm;861;48.808;9.006;2023-04-06T01:43:35;34.11;32.87;35.19;;
41704;Laerm;861;48.808;9.006;2023-04-06T01:46:03;34.11;32.83;35.80;;
41704;Laerm;861;48.808;9.006;2023-04-06T01:48:30;34.10;32.73;35.53;;
41704;Laerm;861;48.808;9.006;2023-04-06T01:50:56;34.10;32.81;35.27;;
41704;Laerm;861;48.808;9.006;2023-04-06T01:53:23;34.11;32.65;35.25;;
41704;Laerm;861;48.808;9.006;2023-04-06T01:55:49;34.11;32.86;35.26;;
41704;Laerm;861;48.808;9.006;2023-04-06T01:58:15;34.11;32.83;35.39;;
41704;Laerm;861;48.808;9.006;2023-04-06T02:00:42;34.13;32.69;35.70;;
41704;Laerm;861;48.808;9.006;2023-04-06T02:03:08;34.15;32.94;35.49;;
41704;Laerm;861;48.808;9.006;2023-04-06T02:05:34;34.17;32.97;35.30;;
41704;Laerm;861;48.808;9.006;2023-04-06T02:08:08;34.18;32.95;35.44;;
41704;Laerm;861;48.808;9.006;2023-04-06T02:10:35;34.19;33.01;35.46;;
41704;Laerm;861;48.808;9.006;2023-04-06T02:13:01;34.17;32.87;35.28;;
41704;Laerm;861;48.808;9.006;2023-04-06T02:15:28;34.17;32.66;35.48;;
41704;Laerm;861;48.808;9.006;2023-04-06T02:17:54;34.18;32.78;35.24;;
41704;Laerm;861;48.808;9.006;2023-04-06T02:20:20;34.17;32.77;35.61;;
41704;Laerm;861;48.808;9.006;2023-04-06T02:22:46;34.18;32.91;35.54;;
41704;Laerm;861;48.808;9.006;2023-04-06T02:25:13;34.17;32.88;35.51;;
41704;Laerm;861;48.808;9.006;2023-04-06T02:27:39;34.18;32.81;35.47;;
41704;Laerm;861;48.808;9.006;2023-04-06T02:30:07;34.17;32.93;35.65;;
41704;Laerm;861;48.808;9.006;2023-04-06T02:32:33;34.17;32.97;35.49;;
41704;Laerm;861;48.808;9.006;2023-04-06T02:35:00;34.18;32.89;35.46;;
41704;Laerm;861;48.808;9.006;2023-04-06T02:37:26;34.18;32.86;35.51;;
41704;Laerm;861;48.808;9.006;2023-04-06T02:39:53;34.17;32.75;35.37;;
41704;Laerm;861;48.808;9.006;2023-04-06T02:42:19;34.17;32.89;35.35;;
41704;Laerm;861;48.808;9.006;2023-04-06T02:44:45;34.18;32.87;35.38;;
41704;Laerm;861;48.808;9.006;2023-04-06T02:47:12;34.18;32.88;35.38;;
41704;Laerm;861;48.808;9.006;2023-04-06T02:49:38;34.17;32.73;35.45;;
41704;Laerm;861;48.808;9.006;2023-04-06T02:52:04;34.17;32.71;35.38;;
41704;Laerm;861;48.808;9.006;2023-04-06T02:54:30;34.16;32.88;35.31;;
41704;Laerm;861;48.808;9.006;2023-04-06T02:56:57;34.17;32.90;35.35;;
41704;Laerm;861;48.808;9.006;2023-04-06T02:59:23;34.16;32.52;35.59;;
41704;Laerm;861;48.808;9.006;2023-04-06T03:01:49;34.16;32.57;35.25;;
41704;Laerm;861;48.808;9.006;2023-04-06T03:04:16;34.17;32.92;35.32;;
41704;Laerm;861;48.808;9.006;2023-04-06T03:06:42;34.17;32.90;35.47;;
41704;Laerm;861;48.808;9.006;2023-04-06T03:09:08;34.18;32.85;35.25;;
41704;Laerm;861;48.808;9.006;2023-04-06T03:11:34;34.18;32.55;35.58;;
41704;Laerm;861;48.808;9.006;2023-04-06T03:14:01;34.17;32.75;35.36;;
41704;Laerm;861;48.808;9.006;2023-04-06T03:16:27;34.18;32.85;35.60;;
41704;Laerm;861;48.808;9.006;2023-04-06T03:18:53;34.17;32.95;35.50;;
41704;Laerm;861;48.808;9.006;2023-04-06T03:21:19;34.15;32.92;35.38;;
41704;Laerm;861;48.808;9.006;2023-04-06T03:23:45;34.15;32.83;35.55;;
41704;Laerm;861;48.808;9.006;2023-04-06T03:26:12;34.16;33.00;35.51;;
41704;Laerm;861;48.808;9.006;2023-04-06T03:28:38;34.17;32.96;35.40;;
41704;Laerm;861;48.808;9.006;2023-04-06T03:31:04;34.15;32.88;35.25;;
41704;Laerm;861;48.808;9.006;2023-04-06T03:33:30;34.16;32.73;35.45;;
41704;Laerm;861;48.808;9.006;2023-04-06T03:35:57;34.16;32.78;35.55;;
41704;Laerm;861;48.808;9.006;2023-04-06T03:38:23;34.17;32.87;35.32;;
41704;Laerm;861;48.808;9.006;2023-04-06T03:40:49;34.18;32.92;35.50;;
41704;Laerm;861;48.808;9.006;2023-04-06T03:43:15;34.20;32.97;35.40;;
41704;Laerm;861;48.808;9.006;2023-04-06T03:45:42;34.20;32.71;35.32;;
41704;Laerm;861;48.808;9.006;2023-04-06T03:48:08;34.18;32.81;35.36;;
41704;Laerm;861;48.808;9.006;2023-04-06T03:50:34;34.19;32.96;35.35;;
41704;Laerm;861;48.808;9.006;2023-04-06T03:53:01;34.18;32.98;35.51;;
41704;Laerm;861;48.808;9.006;2023-04-06T03:55:30;34.20;32.83;35.53;;
41704;Laerm;861;48.808;9.006;2023-04-06T03:57:56;34.21;32.94;35.45;;
41704;Laerm;861;48.808;9.006;2023-04-06T04:00:24;34.20;32.66;35.46;;
41704;Laerm;861;48.808;9.006;2023-04-06T04:02:51;34.20;32.97;35.45;;
41704;Laerm;861;48.808;9.006;2023-04-06T04:05:17;34.19;32.79;35.39;;
41704;Laerm;861;48.808;9.006;2023-04-06T04:07:43;34.17;32.94;35.44;;
41704;Laerm;861;48.808;9.006;2023-04-06T04:10:10;34.18;32.85;35.39;;
41704;Laerm;861;48.808;9.006;2023-04-06T04:12:36;34.16;32.60;35.38;;
41704;Laerm;861;48.808;9.006;2023-04-06T04:15:04;34.17;32.95;35.32;;
41704;Laerm;861;48.808;9.006;2023-04-06T04:17:30;34.17;32.77;35.36;;
41704;Laerm;861;48.808;9.006;2023-04-06T04:19:56;34.17;32.88;35.52;;
41704;Laerm;861;48.808;9.006;2023-04-06T04:22:22;34.17;33.08;35.40;;
41704;Laerm;861;48.808;9.006;2023-04-06T04:24:48;34.17;32.99;35.61;;
41704;Laerm;861;48.808;9.006;2023-04-06T04:27:14;34.18;33.03;35.46;;
41704;Laerm;861;48.808;9.006;2023-04-06T04:29:41;34.21;32.93;35.54;;
41704;Laerm;861;48.808;9.006;2023-04-06T04:32:09;34.21;32.93;35.50;;
41704;Laerm;861;48.808;9.006;2023-04-06T04:34:35;34.21;32.95;35.47;;
41704;Laerm;861;48.808;9.006;2023-04-06T04:37:02;34.21;32.85;35.34;;
41704;Laerm;861;48.808;9.006;2023-04-06T04:39:28;34.22;32.87;35.43;;
41704;Laerm;861;48.808;9.006;2023-04-06T04:41:54;34.22;32.77;35.36;;
41704;Laerm;861;48.808;9.006;2023-04-06T04:44:20;34.23;32.67;35.57;;
41704;Laerm;861;48.808;9.006;2023-04-06T04:46:46;34.23;33.03;35.44;;
41704;Laerm;861;48.808;9.006;2023-04-06T04:49:13;34.22;32.85;35.46;;
41704;Laerm;861;48.808;9.006;2023-04-06T04:51:39;34.22;32.94;35.52;;
41704;Laerm;861;48.808;9.006;2023-04-06T04:54:05;34.22;33.00;35.39;;
41704;Laerm;861;48.808;9.006;2023-04-06T04:56:32;34.22;32.88;35.35;;
41704;Laerm;861;48.808;9.006;2023-04-06T04:58:58;34.20;32.94;35.54;;
41704;Laerm;861;48.808;9.006;2023-04-06T05:01:25;34.22;33.00;35.41;;
41704;Laerm;861;48.808;9.006;2023-04-06T05:03:52;34.24;33.03;35.52;;
41704;Laerm;861;48.808;9.006;2023-04-06T05:06:18;34.24;33.05;35.40;;
41704;Laerm;861;48.808;9.006;2023-04-06T05:08:45;34.25;32.70;35.61;;
41704;Laerm;861;48.808;9.006;2023-04-06T05:11:11;34.25;32.95;35.51;;
41704;Laerm;861;48.808;9.006;2023-04-06T05:13:38;34.25;32.90;35.44;;
41704;Laerm;861;48.808;9.006;2023-04-06T05:16:04;34.27;33.07;35.60;;
41704;Laerm;861;48.808;9.006;2023-04-06T05:18:31;34.28;33.08;35.53;;
41704;Laerm;861;48.808;9.006;2023-04-06T05:20:58;34.27;33.03;35.56;;
41704;Laerm;861;48.808;9.006;2023-04-06T05:23:24;34.27;33.04;35.52;;
41704;Laerm;861;48.808;9.006;2023-04-06T05:25:51;34.28;33.01;35.42;;
41704;Laerm;861;48.808;9.006;2023-04-06T05:28:18;34.27;32.92;35.55;;
41704;Laerm;861;48.808;9.006;2023-04-06T05:30:45;34.28;33.09;35.45;;
41704;Laerm;861;48.808;9.006;2023-04-06T05:33:14;34.28;33.00;35.46;;
41704;Laerm;861;48.808;9.006;2023-04-06T05:35:41;34.28;32.89;35.38;;
41704;Laerm;861;48.808;9.006;2023-04-06T05:38:09;34.30;32.91;35.52;;
41704;Laerm;861;48.808;9.006;2023-04-06T05:40:39;34.29;32.96;35.55;;
41704;Laerm;861;48.808;9.006;2023-04-06T05:43:07;34.29;33.08;35.43;;
41704;Laerm;861;48.808;9.006;2023-04-06T05:45:34;34.30;32.87;35.52;;
41704;Laerm;861;48.808;9.006;2023-04-06T05:48:03;34.30;32.97;35.52;;
41704;Laerm;861;48.808;9.006;2023-04-06T05:50:30;34.30;33.06;35.45;;
41704;Laerm;861;48.808;9.006;2023-04-06T05:52:56;34.30;32.98;35.54;;
41704;Laerm;861;48.808;9.006;2023-04-06T05:55:22;34.31;32.93;35.42;;
41704;Laerm;861;48.808;9.006;2023-04-06T05:57:48;34.30;32.96;35.47;;
41704;Laerm;861;48.808;9.006;2023-04-06T06:00:15;34.30;33.04;35.46;;
41704;Laerm;861;48.808;9.006;2023-04-06T06:02:41;34.30;32.92;35.50;;
41704;Laerm;861;48.808;9.006;2023-04-06T06:05:09;34.27;32.93;35.77;;
41704;Laerm;861;48.808;9.006;2023-04-06T06:07:36;34.28;33.04;35.41;;
41704;Laerm;861;48.808;9.006;2023-04-06T06:10:19;34.28;33.02;35.36;;
41704;Laerm;861;48.808;9.006;2023-04-06T06:12:45;34.28;33.00;35.45;;
41704;Laerm;861;48.808;9.006;2023-04-06T06:15:12;34.30;33.07;35.60;;
41704;Laerm;861;48.808;9.006;2023-04-06T06:17:38;34.31;33.00;35.47;;
41704;Laerm;861;48.808;9.006;2023-04-06T06:20:08;34.30;33.00;35.38;;
41704;Laerm;861;48.808;9.006;2023-04-06T06:22:35;34.32;32.89;35.46;;
41704;Laerm;861;48.808;9.006;2023-04-06T06:25:02;34.30;32.93;35.61;;
41704;Laerm;861;48.808;9.006;2023-04-06T06:27:29;34.31;33.03;35.48;;
41704;Laerm;861;48.808;9.006;2023-04-06T06:29:55;34.30;32.99;35.49;;
41704;Laerm;861;48.808;9.006;2023-04-06T06:32:22;34.29;32.84;35.82;;
41704;Laerm;861;48.808;9.006;2023-04-06T06:34:49;34.29;33.03;35.82;;
41704;Laerm;861;48.808;9.006;2023-04-06T06:37:16;34.27;32.92;35.67;;
41704;Laerm;861;48.808;9.006;2023-04-06T06:39:42;34.28;33.09;35.55;;
41704;Laerm;861;48.808;9.006;2023-04-06T06:42:09;34.27;32.97;35.58;;
41704;Laerm;861;48.808;9.006;2023-04-06T06:44:36;34.26;32.71;35.39;;
41704;Laerm;861;48.808;9.006;2023-04-06T06:47:02;34.28;32.95;35.43;;
41704;Laerm;861;48.808;9.006;2023-04-06T06:49:29;34.25;32.90;35.63;;
41704;Laerm;861;48.808;9.006;2023-04-06T06:51:56;34.25;32.98;35.53;;
41704;Laerm;861;48.808;9.006;2023-04-06T06:54:22;34.26;32.97;35.47;;
41704;Laerm;861;48.808;9.006;2023-04-06T06:56:49;34.25;32.89;35.35;;
41704;Laerm;861;48.808;9.006;2023-04-06T06:59:16;34.23;32.69;35.60;;
41704;Laerm;861;48.808;9.006;2023-04-06T07:01:43;34.22;33.01;35.40;;
41704;Laerm;861;48.808;9.006;2023-04-06T07:04:09;34.21;32.83;35.70;;
41704;Laerm;861;48.808;9.006;2023-04-06T07:06:37;34.22;32.94;35.45;;
41704;Laerm;861;48.808;9.006;2023-04-06T07:09:04;34.22;32.85;35.39;;
41704;Laerm;861;48.808;9.006;2023-04-06T07:11:30;34.22;32.99;35.33;;
41704;Laerm;861;48.808;9.006;2023-04-06T07:13:57;34.23;33.00;35.55;;
41704;Laerm;861;48.808;9.006;2023-04-06T07:16:24;34.25;32.81;35.37;;
41704;Laerm;861;48.808;9.006;2023-04-06T07:18:51;34.32;32.94;35.45;;
41704;Laerm;861;48.808;9.006;2023-04-06T07:21:17;34.32;33.07;35.54;;
41704;Laerm;861;48.808;9.006;2023-04-06T07:23:44;34.35;32.94;35.49;;
41704;Laerm;861;48.808;9.006;2023-04-06T07:26:11;34.41;32.97;35.59;;
41704;Laerm;861;48.808;9.006;2023-04-06T07:28:37;34.48;33.35;35.57;;
41704;Laerm;861;48.808;9.006;2023-04-06T07:31:04;34.53;33.40;35.86;;
41704;Laerm;861;48.808;9.006;2023-04-06T07:33:31;34.58;33.30;35.75;;
41704;Laerm;861;48.808;9.006;2023-04-06T07:35:57;34.69;33.44;35.82;;
41704;Laerm;861;48.808;9.006;2023-04-06T07:38:25;34.78;33.45;35.98;;
41704;Laerm;861;48.808;9.006;2023-04-06T07:40:52;34.83;33.62;36.11;;
41704;Laerm;861;48.808;9.006;2023-04-06T07:43:18;34.89;33.36;36.10;;
41704;Laerm;861;48.808;9.006;2023-04-06T07:45:45;34.96;33.63;36.20;;
41704;Laerm;861;48.808;9.006;2023-04-06T07:48:12;35.05;33.73;36.44;;
41704;Laerm;861;48.808;9.006;2023-04-06T07:50:51;35.06;33.80;36.22;;
41704;Laerm;861;48.808;9.006;2023-04-06T07:53:17;35.20;33.91;36.37;;
41704;Laerm;861;48.808;9.006;2023-04-06T07:55:44;35.27;34.02;36.52;;
41704;Laerm;861;48.808;9.006;2023-04-06T07:58:10;35.36;34.02;36.64;;
41704;Laerm;861;48.808;9.006;2023-04-06T08:00:37;35.45;34.15;36.68;;
41704;Laerm;861;48.808;9.006;2023-04-06T08:03:04;35.51;33.94;36.72;;
41704;Laerm;861;48.808;9.006;2023-04-06T08:05:31;35.61;34.36;36.77;;
41704;Laerm;861;48.808;9.006;2023-04-06T08:07:58;35.64;34.38;36.80;;
41704;Laerm;861;48.808;9.006;2023-04-06T08:10:24;35.72;34.46;36.95;;
41704;Laerm;861;48.808;9.006;2023-04-06T08:12:53;35.77;34.60;36.98;;
41704;Laerm;861;48.808;9.006;2023-04-06T08:15:19;35.89;34.70;37.25;;
41704;Laerm;861;48.808;9.006;2023-04-06T08:17:46;36.05;34.91;37.22;;
41704;Laerm;861;48.808;9.006;2023-04-06T08:20:13;36.07;34.48;37.44;;
41704;Laerm;861;48.808;9.006;2023-04-06T08:22:40;36.17;34.86;37.18;;
41704;Laerm;861;48.808;9.006;2023-04-06T08:25:07;36.30;34.94;37.49;;
41704;Laerm;861;48.808;9.006;2023-04-06T08:27:33;36.37;35.08;37.63;;
41704;Laerm;861;48.808;9.006;2023-04-06T08:30:00;36.44;35.28;37.59;;
41704;Laerm;861;48.808;9.006;2023-04-06T08:32:28;36.50;35.13;48.07;;
41704;Laerm;861;48.808;9.006;2023-04-06T08:42:02;36.62;35.19;39.13;;
41704;Laerm;861;48.808;9.006;2023-04-06T08:44:31;36.63;35.28;37.71;;
41704;Laerm;861;48.808;9.006;2023-04-06T08:47:00;36.64;35.29;37.92;;
41704;Laerm;861;48.808;9.006;2023-04-06T08:49:28;36.62;35.39;38.01;;
41704;Laerm;861;48.808;9.006;2023-04-06T08:51:56;36.64;35.19;37.86;;
41704;Laerm;861;48.808;9.006;2023-04-06T08:54:23;36.62;35.27;37.92;;
41704;Laerm;861;48.808;9.006;2023-04-06T08:56:53;36.58;34.91;37.96;;
41704;Laerm;861;48.808;9.006;2023-04-06T08:59:21;36.53;34.99;37.70;;
41704;Laerm;861;48.808;9.006;2023-04-06T09:01:48;36.52;35.10;38.13;;
41704;Laerm;861;48.808;9.006;2023-04-06T09:04:15;36.51;35.17;37.72;;
41704;Laerm;861;48.808;9.006;2023-04-06T09:06:42;36.50;35.19;37.77;;
41704;Laerm;861;48.808;9.006;2023-04-06T09:09:09;36.56;35.01;37.69;;
41704;Laerm;861;48.808;9.006;2023-04-06T09:11:51;36.62;35.28;37.87;;
41704;Laerm;861;48.808;9.006;2023-04-06T09:14:37;36.58;35.21;37.76;;
41704;Laerm;861;48.808;9.006;2023-04-06T09:17:05;36.63;35.11;58.32;;
41704;Laerm;861;48.808;9.006;2023-04-06T09:19:32;36.47;35.21;37.77;;
41704;Laerm;861;48.808;9.006;2023-04-06T09:22:06;36.37;35.08;37.69;;
41704;Laerm;861;48.808;9.006;2023-04-06T09:24:49;36.34;34.94;37.78;;
41704;Laerm;861;48.808;9.006;2023-04-06T09:27:17;36.23;34.85;37.52;;
41704;Laerm;861;48.808;9.006;2023-04-06T09:29:45;36.17;34.83;37.53;;
41704;Laerm;861;48.808;9.006;2023-04-06T09:32:12;36.06;34.60;43.31;;
41704;Laerm;861;48.808;9.006;2023-04-06T09:34:43;36.17;34.60;37.41;;
41704;Laerm;861;48.808;9.006;2023-04-06T09:37:18;36.24;35.04;37.70;;
41704;Laerm;861;48.808;9.006;2023-04-06T09:39:46;36.22;34.39;37.51;;
41704;Laerm;861;48.808;9.006;2023-04-06T09:42:27;36.07;34.73;37.68;;
41704;Laerm;861;48.808;9.006;2023-04-06T09:44:54;36.03;34.50;37.35;;
41704;Laerm;861;48.808;9.006;2023-04-06T09:47:22;35.92;34.28;37.24;;
41704;Laerm;861;48.808;9.006;2023-04-06T09:50:00;35.95;34.49;37.38;;
41704;Laerm;861;48.808;9.006;2023-04-06T09:52:33;43.32;34.46;78.88;;
41704;Laerm;861;48.808;9.006;2023-04-06T09:55:06;35.84;34.56;37.42;;
41704;Laerm;861;48.808;9.006;2023-04-06T09:58:09;35.74;34.25;37.11;;
41704;Laerm;861;48.808;9.006;2023-04-06T10:01:15;35.69;34.20;37.22;;
41704;Laerm;861;48.808;9.006;2023-04-06T10:06:48;35.54;34.04;37.02;;
41704;Laerm;861;48.808;9.006;2023-04-06T10:09:25;35.51;34.11;36.91;;
41704;Laerm;861;48.808;9.006;2023-04-06T10:11:58;35.43;34.10;36.75;;
41704;Laerm;861;48.808;9.006;2023-04-06T10:14:25;35.34;34.08;36.56;;
41704;Laerm;861;48.808;9.006;2023-04-06T10:16:52;35.29;33.86;37.61;;
41704;Laerm;861;48.808;9.006;2023-04-06T10:19:52;35.29;33.84;36.59;;
41704;Laerm;861;48.808;9.006;2023-04-06T10:22:45;35.48;33.71;36.81;;
41704;Laerm;861;48.808;9.006;2023-04-06T10:25:29;35.52;34.05;36.94;;
41704;Laerm;861;48.808;9.006;2023-04-06T10:28:12;35.56;34.15;37.05;;
41704;Laerm;861;48.808;9.006;2023-04-06T10:30:43;35.50;34.21;36.86;;
41704;Laerm;861;48.808;9.006;2023-04-06T10:33:21;35.38;34.04;36.75;;
41704;Laerm;861;48.808;9.006;2023-04-06T10:35:48;35.21;33.69;36.47;;
41704;Laerm;861;48.808;9.006;2023-04-06T10:38:14;35.23;33.96;36.47;;
41704;Laerm;861;48.808;9.006;2023-04-06T10:40:43;35.40;33.88;36.72;;
41704;Laerm;861;48.808;9.006;2023-04-06T10:43:22;35.40;34.12;36.68;;
41704;Laerm;861;48.808;9.006;2023-04-06T10:46:01;35.31;33.96;36.82;;
41704;Laerm;861;48.808;9.006;2023-04-06T10:48:44;35.14;33.82;36.55;;
41704;Laerm;861;48.808;9.006;2023-04-06T10:51:18;35.25;33.94;36.57;;
41704;Laerm;861;48.808;9.006;2023-04-06T10:53:48;35.21;33.63;36.63;;
41704;Laerm;861;48.808;9.006;2023-04-06T10:56:22;35.12;33.70;36.50;;
41704;Laerm;861;48.808;9.006;2023-04-06T10:58:53;35.06;33.62;37.38;;
41704;Laerm;861;48.808;9.006;2023-04-06T11:01:24;35.03;33.61;36.47;;
41704;Laerm;861;48.808;9.006;2023-04-06T11:03:58;35.24;33.84;36.90;;
41704;Laerm;861;48.808;9.006;2023-04-06T11:06:29;35.16;33.69;36.46;;
41704;Laerm;861;48.808;9.006;2023-04-06T11:08:58;35.08;33.73;36.52;;
41704;Laerm;861;48.808;9.006;2023-04-06T11:11:27;35.18;33.78;36.51;;
41704;Laerm;861;48.808;9.006;2023-04-06T11:14:00;35.15;33.67;36.46;;
41704;Laerm;861;48.808;9.006;2023-04-06T11:16:32;35.11;33.48;36.38;;
41704;Laerm;861;48.808;9.006;2023-04-06T11:19:03;35.06;33.55;36.50;;
41704;Laerm;861;48.808;9.006;2023-04-06T11:21:48;35.01;33.62;36.49;;
41704;Laerm;861;48.808;9.006;2023-04-06T11:24:24;34.95;33.55;36.32;;
41704;Laerm;861;48.808;9.006;2023-04-06T11:26:57;34.98;33.61;36.20;;
41704;Laerm;861;48.808;9.006;2023-04-06T11:29:29;34.99;33.48;36.40;;
41704;Laerm;861;48.808;9.006;2023-04-06T11:32:02;34.96;33.41;36.18;;
41704;Laerm;861;48.808;9.006;2023-04-06T11:34:33;34.85;33.20;36.23;;
41704;Laerm;861;48.808;9.006;2023-04-06T11:37:08;34.86;33.39;36.38;;
41704;Laerm;861;48.808;9.006;2023-04-06T11:39:48;34.96;33.54;36.27;;
41704;Laerm;861;48.808;9.006;2023-04-06T11:42:25;34.86;33.15;36.39;;
41704;Laerm;861;48.808;9.006;2023-04-06T11:44:59;34.65;33.23;37.70;;
41704;Laerm;861;48.808;9.006;2023-04-06T11:47:36;34.50;32.95;35.84;;
41704;Laerm;861;48.808;9.006;2023-04-06T11:50:13;34.55;33.17;42.25;;
41704;Laerm;861;48.808;9.006;2023-04-06T11:52:44;34.48;33.16;37.66;;
41704;Laerm;861;48.808;9.006;2023-04-06T11:55:17;34.61;33.05;36.05;;
41704;Laerm;861;48.808;9.006;2023-04-06T11:57:45;34.66;33.10;35.98;;
41704;Laerm;861;48.808;9.006;2023-04-06T12:00:13;34.51;33.25;35.81;;
41704;Laerm;861;48.808;9.006;2023-04-06T12:02:45;34.47;33.19;35.87;;
41704;Laerm;861;48.808;9.006;2023-04-06T12:05:12;34.41;33.03;36.22;;
41704;Laerm;861;48.808;9.006;2023-04-06T12:07:39;34.45;33.17;36.14;;
41704;Laerm;861;48.808;9.006;2023-04-06T12:10:06;34.56;32.94;35.93;;
41704;Laerm;861;48.808;9.006;2023-04-06T12:12:33;34.71;32.99;36.08;;
41704;Laerm;861;48.808;9.006;2023-04-06T12:14:59;34.66;33.10;36.01;;
41704;Laerm;861;48.808;9.006;2023-04-06T12:17:26;34.60;33.10;35.95;;
41704;Laerm;861;48.808;9.006;2023-04-06T12:19:53;34.53;33.13;35.88;;
41704;Laerm;861;48.808;9.006;2023-04-06T12:22:19;34.50;33.13;35.90;;
41704;Laerm;861;48.808;9.006;2023-04-06T12:24:46;34.44;32.91;35.83;;
41704;Laerm;861;48.808;9.006;2023-04-06T12:27:13;34.45;32.91;36.13;;
41704;Laerm;861;48.808;9.006;2023-04-06T12:29:39;34.43;32.82;37.60;;
41704;Laerm;861;48.808;9.006;2023-04-06T12:32:06;34.26;32.90;39.27;;
41704;Laerm;861;48.808;9.006;2023-04-06T12:34:33;34.37;32.98;35.66;;
41704;Laerm;861;48.808;9.006;2023-04-06T12:37:00;34.25;32.71;35.58;;
41704;Laerm;861;48.808;9.006;2023-04-06T12:39:28;33.94;32.58;35.17;;
41704;Laerm;861;48.808;9.006;2023-04-06T12:41:54;33.94;32.33;35.41;;
41704;Laerm;861;48.808;9.006;2023-04-06T12:44:22;34.24;32.90;35.58;;
41704;Laerm;861;48.808;9.006;2023-04-06T12:46:49;34.45;33.07;35.61;;
41704;Laerm;861;48.808;9.006;2023-04-06T12:49:16;34.51;33.06;35.86;;
41704;Laerm;861;48.808;9.006;2023-04-06T12:51:45;34.51;33.26;35.76;;
41704;Laerm;861;48.808;9.006;2023-04-06T12:54:12;34.46;33.05;35.90;;
41704;Laerm;861;48.808;9.006;2023-04-06T12:56:38;34.40;33.02;35.58;;
41704;Laerm;861;48.808;9.006;2023-04-06T12:59:05;34.46;32.67;35.98;;
41704;Laerm;861;48.808;9.006;2023-04-06T13:01:32;34.48;33.15;35.92;;
41704;Laerm;861;48.808;9.006;2023-04-06T13:03:59;34.45;32.99;35.80;;
41704;Laerm;861;48.808;9.006;2023-04-06T13:06:26;34.42;33.13;35.75;;
41704;Laerm;861;48.808;9.006;2023-04-06T13:08:55;34.50;32.96;35.80;;
41704;Laerm;861;48.808;9.006;2023-04-06T13:11:22;34.53;33.07;35.86;;
41704;Laerm;861;48.808;9.006;2023-04-06T13:13:50;34.56;33.18;36.25;;
41704;Laerm;861;48.808;9.006;2023-04-06T13:16:17;34.40;33.08;35.85;;
41704;Laerm;861;48.808;9.006;2023-04-06T13:18:43;34.48;33.04;35.78;;
41704;Laerm;861;48.808;9.006;2023-04-06T13:21:15;34.24;32.97;35.58;;
41704;Laerm;861;48.808;9.006;2023-04-06T13:23:43;34.24;33.02;35.38;;
41704;Laerm;861;48.808;9.006;2023-04-06T13:26:10;34.10;32.70;35.60;;
41704;Laerm;861;48.808;9.006;2023-04-06T13:28:37;34.02;32.59;35.24;;
41704;Laerm;861;48.808;9.006;2023-04-06T13:31:06;34.06;32.61;35.39;;
41704;Laerm;861;48.808;9.006;2023-04-06T13:33:33;33.99;32.61;35.33;;
41704;Laerm;861;48.808;9.006;2023-04-06T13:36:01;34.26;32.93;35.58;;
41704;Laerm;861;48.808;9.006;2023-04-06T13:38:29;34.22;32.69;35.54;;
41704;Laerm;861;48.808;9.006;2023-04-06T13:40:55;34.22;32.80;35.46;;
41704;Laerm;861;48.808;9.006;2023-04-06T13:43:22;34.30;33.02;35.70;;
41704;Laerm;861;48.808;9.006;2023-04-06T13:45:54;34.19;32.52;35.55;;
41704;Laerm;861;48.808;9.006;2023-04-06T13:48:22;33.96;32.66;35.40;;
41704;Laerm;861;48.808;9.006;2023-04-06T13:50:49;33.81;32.33;35.18;;
41704;Laerm;861;48.808;9.006;2023-04-06T13:53:16;33.76;32.04;35.06;;
41704;Laerm;861;48.808;9.006;2023-04-06T13:55:43;33.69;32.21;34.97;;
41704;Laerm;861;48.808;9.006;2023-04-06T13:58:11;33.75;32.13;35.16;;
41704;Laerm;861;48.808;9.006;2023-04-06T14:00:38;33.78;32.36;38.00;;
41704;Laerm;861;48.808;9.006;2023-04-06T14:03:05;33.70;32.15;35.16;;
41704;Laerm;861;48.808;9.006;2023-04-06T14:05:33;33.77;32.32;35.19;;
41704;Laerm;861;48.808;9.006;2023-04-06T14:08:01;33.66;31.76;35.14;;
41704;Laerm;861;48.808;9.006;2023-04-06T14:10:28;33.56;32.21;35.04;;
41704;Laerm;861;48.808;9.006;2023-04-06T14:12:54;33.65;32.15;34.79;;
41704;Laerm;861;48.808;9.006;2023-04-06T14:15:22;33.70;32.19;35.40;;
41704;Laerm;861;48.808;9.006;2023-04-06T14:17:49;33.58;32.17;34.95;;
41704;Laerm;861;48.808;9.006;2023-04-06T14:20:16;33.39;31.91;37.27;;
41704;Laerm;861;48.808;9.006;2023-04-06T14:22:43;33.36;31.89;38.32;;
41704;Laerm;861;48.808;9.006;2023-04-06T14:25:10;33.20;31.73;34.66;;